createdAt,value
2023-03-24T00:01:29.111Z,9.34
2023-03-24T00:03:55.409Z,9.27
2023-03-24T00:06:21.692Z,9.28
2023-03-24T00:08:47.910Z,9.29
2023-03-24T00:11:14.485Z,9.31
2023-03-24T00:13:40.761Z,9.30
2023-03-24T00:16:07.964Z,9.29
2023-03-24T00:18:34.213Z,9.30
2023-03-24T00:21:00.428Z,9.31
2023-03-24T00:23:26.801Z,9.34
2023-03-24T00:26:03.175Z,9.33
2023-03-24T00:28:30.178Z,9.36
2023-03-24T00:30:56.398Z,9.35
2023-03-24T00:33:22.608Z,9.37
2023-03-24T00:35:49.060Z,9.34
2023-03-24T00:38:15.325Z,9.38
2023-03-24T00:40:45.356Z,9.36
2023-03-24T00:43:11.779Z,9.37
2023-03-24T00:45:37.992Z,9.35
2023-03-24T00:48:04.326Z,9.36
2023-03-24T00:50:30.560Z,9.35
2023-03-24T00:52:56.762Z,9.37
2023-03-24T00:55:23.143Z,9.40
2023-03-24T00:57:49.634Z,9.46
2023-03-24T01:00:17.106Z,9.43
2023-03-24T01:02:43.316Z,9.46
2023-03-24T01:05:09.544Z,9.46
2023-03-24T01:07:35.743Z,9.48
2023-03-24T01:10:01.957Z,9.52
2023-03-24T01:12:35.802Z,9.57
2023-03-24T01:15:02.377Z,9.57
2023-03-24T01:17:28.627Z,9.59
2023-03-24T01:19:55.138Z,9.61
2023-03-24T01:22:21.465Z,9.65
2023-03-24T01:24:48.122Z,9.65
2023-03-24T01:27:14.524Z,9.68
2023-03-24T01:29:40.742Z,9.73
2023-03-24T01:32:07.008Z,9.74
2023-03-24T01:34:33.375Z,9.74
2023-03-24T01:37:00.112Z,9.74
2023-03-24T01:39:26.330Z,9.82
2023-03-24T01:41:52.573Z,9.81
2023-03-24T01:44:26.016Z,9.77
2023-03-24T01:46:52.232Z,9.76
2023-03-24T01:49:18.436Z,9.79
2023-03-24T01:51:45.444Z,9.85
2023-03-24T01:54:13.976Z,9.82
2023-03-24T01:56:42.102Z,9.82
2023-03-24T01:59:12.486Z,9.87
2023-03-24T02:01:38.794Z,9.86
2023-03-24T02:04:05.730Z,9.90
2023-03-24T02:06:32.454Z,9.87
2023-03-24T02:08:59.037Z,9.92
2023-03-24T02:11:26.111Z,9.93
2023-03-24T02:13:52.342Z,10.01
2023-03-24T02:16:37.958Z,10.02
2023-03-24T02:19:10.827Z,10.01
2023-03-24T02:21:55.796Z,10.03
2023-03-24T02:24:40.492Z,10.06
2023-03-24T02:27:18.486Z,10.08
2023-03-24T02:29:59.855Z,10.07
2023-03-24T02:32:40.123Z,10.06
2023-03-24T02:35:21.707Z,10.02
2023-03-24T02:37:50.639Z,10.08
2023-03-24T02:40:18.420Z,10.04
2023-03-24T02:42:51.299Z,10.01
2023-03-24T02:45:20.016Z,10.03
2023-03-24T02:47:50.334Z,10.00
2023-03-24T02:50:28.070Z,10.00
2023-03-24T02:53:00.648Z,9.99
2023-03-24T02:55:45.440Z,9.93
2023-03-24T02:58:14.249Z,9.98
2023-03-24T03:00:42.204Z,9.97
2023-03-24T03:03:09.946Z,9.96
2023-03-24T03:05:39.676Z,9.96
2023-03-24T03:08:07.619Z,9.97
2023-03-24T03:10:37.569Z,10.00
2023-03-24T03:13:05.934Z,9.99
2023-03-24T03:15:32.788Z,10.02
2023-03-24T03:18:07.186Z,10.00
2023-03-24T03:20:34.522Z,9.95
2023-03-24T03:23:01.661Z,10.01
2023-03-24T03:25:29.043Z,9.98
2023-03-24T03:27:55.611Z,9.94
2023-03-24T03:30:26.946Z,9.96
2023-03-24T03:32:55.352Z,9.95
2023-03-24T03:35:24.568Z,9.92
2023-03-24T03:37:56.563Z,9.98
2023-03-24T03:40:24.107Z,9.95
2023-03-24T03:42:50.488Z,9.98
2023-03-24T03:45:16.770Z,9.98
2023-03-24T03:47:43.137Z,9.96
2023-03-24T03:50:09.412Z,9.92
2023-03-24T03:52:36.707Z,9.95
2023-03-24T03:55:03.244Z,9.96
2023-03-24T03:57:29.462Z,9.94
2023-03-24T03:59:55.667Z,9.98
2023-03-24T04:02:40.295Z,10.00
2023-03-24T04:05:20.643Z,10.06
2023-03-24T04:07:46.817Z,10.08
2023-03-24T04:10:21.261Z,10.06
2023-03-24T04:13:06.192Z,10.07
2023-03-24T04:15:34.234Z,10.07
2023-03-24T04:18:12.689Z,10.09
2023-03-24T04:20:44.104Z,10.16
2023-03-24T04:23:14.481Z,10.12
2023-03-24T04:25:40.787Z,10.11
2023-03-24T04:28:21.971Z,10.12
2023-03-24T04:30:54.426Z,10.16
2023-03-24T04:33:23.818Z,10.22
2023-03-24T04:35:51.876Z,10.16
2023-03-24T04:38:22.898Z,10.13
2023-03-24T04:40:49.465Z,10.13
2023-03-24T04:43:15.772Z,10.19
2023-03-24T04:45:42.109Z,10.24
2023-03-24T04:48:09.039Z,10.29
2023-03-24T04:50:36.234Z,10.27
2023-03-24T04:53:02.999Z,10.26
2023-03-24T04:55:48.027Z,10.27
2023-03-24T04:58:14.242Z,10.35
2023-03-24T05:00:40.445Z,10.32
2023-03-24T05:03:06.773Z,10.35
2023-03-24T05:05:33.085Z,10.30
2023-03-24T05:07:59.290Z,10.32
2023-03-24T05:10:25.519Z,10.36
2023-03-24T05:12:51.734Z,10.43
2023-03-24T05:15:17.945Z,10.42
2023-03-24T05:17:44.183Z,10.36
2023-03-24T05:20:10.528Z,10.39
2023-03-24T05:22:37.271Z,10.35
2023-03-24T05:25:03.671Z,10.38
2023-03-24T05:27:29.879Z,10.36
2023-03-24T05:29:56.086Z,10.44
2023-03-24T05:32:22.364Z,10.38
2023-03-24T05:34:48.581Z,10.37
2023-03-24T05:37:14.787Z,10.40
2023-03-24T05:39:41.010Z,10.42
2023-03-24T05:42:07.213Z,10.47
2023-03-24T05:44:33.418Z,10.46
2023-03-24T05:46:59.630Z,10.49
2023-03-24T05:49:25.848Z,10.45
2023-03-24T05:51:52.080Z,10.51
2023-03-24T05:54:18.294Z,10.55
2023-03-24T05:56:44.513Z,10.48
2023-03-24T05:59:10.812Z,10.54
2023-03-24T06:01:37.023Z,10.51
2023-03-24T06:04:05.061Z,10.58
2023-03-24T06:06:31.307Z,10.65
2023-03-24T06:08:57.540Z,10.60
2023-03-24T06:11:23.786Z,10.58
2023-03-24T06:13:50.001Z,10.59
2023-03-24T06:16:16.206Z,10.61
2023-03-24T06:18:42.422Z,10.66
2023-03-24T06:21:08.626Z,10.66
2023-03-24T06:23:34.825Z,10.63
2023-03-24T06:26:01.070Z,10.77
2023-03-24T06:28:27.288Z,10.80
2023-03-24T06:30:53.539Z,10.80
2023-03-24T06:33:19.777Z,10.80
2023-03-24T06:35:46.221Z,10.87
2023-03-24T06:38:12.574Z,10.87
2023-03-24T06:40:38.791Z,10.88
2023-03-24T06:43:05.011Z,10.90
2023-03-24T06:45:31.370Z,10.92
2023-03-24T06:47:57.735Z,10.95
2023-03-24T06:50:24.328Z,11.00
2023-03-24T06:52:50.531Z,11.01
2023-03-24T06:55:16.779Z,11.09
2023-03-24T06:57:42.982Z,11.10
2023-03-24T07:00:09.338Z,11.09
2023-03-24T07:02:35.767Z,11.17
2023-03-24T07:05:02.721Z,11.16
2023-03-24T07:08:08.358Z,11.22
2023-03-24T07:10:15.129Z,11.21
2023-03-24T07:12:41.569Z,11.24
2023-03-24T07:15:08.144Z,11.28
2023-03-24T07:17:34.388Z,11.28
2023-03-24T07:20:00.641Z,11.37
2023-03-24T07:22:26.853Z,11.33
2023-03-24T07:24:54.313Z,11.36
2023-03-24T07:27:20.746Z,11.34
2023-03-24T07:29:47.030Z,11.35
2023-03-24T07:32:13.246Z,11.48
2023-03-24T07:34:39.452Z,11.48
2023-03-24T07:37:05.664Z,11.46
2023-03-24T07:39:31.888Z,11.44
2023-03-24T07:41:58.092Z,11.44
2023-03-24T07:44:24.933Z,11.50
2023-03-24T07:46:51.142Z,11.52
2023-03-24T07:49:19.679Z,11.56
2023-03-24T07:51:46.388Z,11.58
2023-03-24T07:54:12.601Z,11.56
2023-03-24T07:56:38.924Z,11.55
2023-03-24T07:59:05.197Z,11.57
2023-03-24T08:01:31.633Z,11.59
2023-03-24T08:03:57.954Z,11.55
2023-03-24T08:06:24.431Z,11.61
2023-03-24T08:08:50.685Z,11.65
2023-03-24T08:11:16.892Z,11.71
2023-03-24T08:13:43.122Z,11.70
2023-03-24T08:16:09.388Z,11.76
2023-03-24T08:18:35.644Z,11.81
2023-03-24T08:21:01.878Z,11.96
2023-03-24T08:23:28.095Z,12.08
2023-03-24T08:25:54.301Z,12.18
2023-03-24T08:28:20.507Z,12.19
2023-03-24T08:30:47.107Z,12.18
2023-03-24T08:33:13.964Z,12.21
2023-03-24T08:35:40.268Z,12.33
2023-03-24T08:38:07.276Z,12.37
2023-03-24T08:40:33.621Z,12.39
2023-03-24T08:43:00.618Z,12.38
2023-03-24T08:45:27.682Z,12.36
2023-03-24T08:47:54.126Z,12.36
2023-03-24T08:50:20.891Z,12.38
2023-03-24T08:52:47.095Z,12.30
2023-03-24T08:55:13.779Z,12.28
2023-03-24T08:57:39.996Z,12.20
2023-03-24T09:00:06.537Z,12.14
2023-03-24T09:02:32.798Z,12.08
2023-03-24T09:04:59.043Z,12.11
2023-03-24T09:07:25.322Z,12.17
2023-03-24T09:09:51.521Z,12.19
2023-03-24T09:12:17.745Z,12.34
2023-03-24T09:14:47.488Z,12.26
2023-03-24T09:17:13.707Z,12.32
2023-03-24T09:19:39.925Z,12.52
2023-03-24T09:22:06.152Z,12.56
2023-03-24T09:24:32.363Z,12.76
2023-03-24T09:26:58.570Z,12.99
2023-03-24T09:29:24.777Z,13.13
2023-03-24T09:31:51.203Z,13.61
2023-03-24T09:34:17.450Z,13.85
2023-03-24T09:36:43.674Z,14.25
2023-03-24T09:39:09.903Z,13.88
2023-03-24T09:41:36.125Z,13.53
2023-03-24T09:44:20.995Z,13.95
2023-03-24T09:46:48.634Z,13.64
2023-03-24T09:49:24.807Z,13.49
2023-03-24T09:51:51.946Z,13.65
2023-03-24T09:54:18.997Z,13.50
2023-03-24T09:56:48.204Z,14.20
2023-03-24T09:59:17.721Z,13.77
2023-03-24T10:01:44.510Z,13.54
2023-03-24T10:04:18.503Z,13.22
2023-03-24T10:06:44.810Z,13.30
2023-03-24T10:09:16.957Z,13.47
2023-03-24T10:11:56.743Z,13.98
2023-03-24T10:14:22.933Z,13.63
2023-03-24T10:16:51.911Z,13.24
2023-03-24T10:19:36.712Z,13.41
2023-03-24T10:22:05.146Z,13.84
2023-03-24T10:24:50.221Z,14.16
2023-03-24T10:27:30.401Z,13.71
2023-03-24T10:30:00.238Z,13.78
2023-03-24T10:32:26.818Z,14.22
2023-03-24T10:34:54.525Z,13.85
2023-03-24T10:37:20.762Z,13.69
2023-03-24T10:39:47.011Z,13.20
2023-03-24T10:42:14.649Z,13.04
2023-03-24T10:44:40.889Z,13.16
2023-03-24T10:47:09.731Z,12.94
2023-03-24T10:49:35.940Z,12.81
2023-03-24T10:52:02.601Z,13.25
2023-03-24T10:54:29.322Z,13.51
2023-03-24T10:56:58.561Z,13.78
2023-03-24T10:59:32.617Z,13.63
2023-03-24T11:01:59.634Z,13.80
2023-03-24T11:04:25.902Z,13.41
2023-03-24T11:07:05.361Z,13.31
2023-03-24T11:09:43.499Z,13.26
2023-03-24T11:12:20.015Z,12.97
2023-03-24T11:14:46.225Z,12.97
2023-03-24T11:17:13.152Z,12.83
2023-03-24T11:19:39.373Z,12.78
2023-03-24T11:22:05.670Z,12.93
2023-03-24T11:24:34.552Z,12.89
2023-03-24T11:27:00.853Z,13.06
2023-03-24T11:29:27.177Z,13.33
2023-03-24T11:31:54.298Z,13.42
2023-03-24T11:34:22.152Z,13.22
2023-03-24T11:36:52.368Z,13.32
2023-03-24T11:39:19.775Z,13.26
2023-03-24T11:42:02.445Z,13.45
2023-03-24T11:44:31.757Z,13.50
2023-03-24T11:47:03.229Z,13.60
2023-03-24T11:49:30.733Z,13.53
2023-03-24T11:51:56.947Z,13.11
2023-03-24T11:54:25.044Z,13.04
2023-03-24T11:56:52.721Z,13.21
2023-03-24T11:59:22.048Z,13.17
2023-03-24T12:01:50.976Z,13.03
2023-03-24T12:04:23.299Z,13.17
2023-03-24T12:07:07.934Z,13.22
2023-03-24T12:09:52.817Z,13.17
2023-03-24T12:12:18.976Z,13.44
2023-03-24T12:15:14.390Z,13.90
2023-03-24T12:18:09.742Z,14.03
2023-03-24T12:20:48.237Z,13.75
2023-03-24T12:23:17.473Z,13.58
2023-03-24T12:25:55.527Z,13.43
2023-03-24T12:28:35.659Z,13.57
2023-03-24T12:31:20.713Z,13.37
2023-03-24T12:33:58.882Z,13.49
2023-03-24T12:36:37.696Z,13.98
2023-03-24T12:39:07.976Z,14.19
2023-03-24T12:41:57.532Z,14.70
2023-03-24T12:44:27.906Z,14.77
2023-03-24T12:47:03.688Z,14.49
2023-03-24T12:49:48.490Z,14.25
2023-03-24T12:52:23.861Z,14.46
2023-03-24T12:54:52.300Z,14.36
2023-03-24T12:57:18.650Z,14.39
2023-03-24T13:00:05.879Z,14.17
2023-03-24T13:02:37.769Z,14.43
2023-03-24T13:05:07.670Z,14.12
2023-03-24T13:07:36.948Z,14.08
2023-03-24T13:10:04.515Z,13.77
2023-03-24T13:12:38.634Z,13.54
2023-03-24T13:15:23.688Z,13.37
2023-03-24T13:17:58.793Z,13.64
2023-03-24T13:20:27.745Z,13.92
2023-03-24T13:22:53.956Z,13.79
2023-03-24T13:25:23.308Z,13.68
2023-03-24T13:27:50.108Z,14.03
2023-03-24T13:30:25.412Z,14.41
2023-03-24T13:32:52.881Z,14.62
2023-03-24T13:35:38.376Z,14.41
2023-03-24T13:38:18.844Z,14.43
2023-03-24T13:40:46.063Z,14.45
2023-03-24T13:43:13.148Z,14.29
2023-03-24T13:45:46.680Z,14.27
2023-03-24T13:48:13.052Z,14.12
2023-03-24T13:50:39.663Z,14.11
2023-03-24T13:53:06.530Z,14.22
2023-03-24T13:55:34.872Z,14.33
2023-03-24T13:58:04.034Z,14.36
2023-03-24T14:00:30.299Z,14.63
2023-03-24T14:03:01.355Z,14.72
2023-03-24T14:05:31.463Z,14.59
2023-03-24T14:08:00.488Z,14.29
2023-03-24T14:10:26.644Z,14.22
2023-03-24T14:12:52.852Z,14.25
2023-03-24T14:15:42.302Z,14.40
2023-03-24T14:18:15.422Z,14.54
2023-03-24T14:20:56.978Z,14.56
2023-03-24T14:23:38.334Z,14.60
2023-03-24T14:26:08.561Z,14.17
2023-03-24T14:28:38.032Z,14.05
2023-03-24T14:31:13.565Z,13.95
2023-03-24T14:33:39.814Z,14.22
2023-03-24T14:36:06.317Z,14.43
2023-03-24T14:38:36.271Z,14.19
2023-03-24T14:41:25.536Z,14.16
2023-03-24T14:43:52.420Z,13.99
2023-03-24T14:46:21.778Z,14.12
2023-03-24T14:49:06.930Z,14.10
2023-03-24T14:51:50.658Z,13.85
2023-03-24T14:54:17.750Z,13.70
2023-03-24T14:56:44.973Z,13.71
2023-03-24T14:59:15.604Z,13.65
2023-03-24T15:01:41.896Z,13.76
2023-03-24T15:04:08.274Z,13.84
2023-03-24T15:06:42.603Z,13.56
2023-03-24T15:09:08.998Z,13.60
2023-03-24T15:11:35.853Z,13.84
2023-03-24T15:14:02.230Z,13.98
2023-03-24T15:16:29.017Z,13.93
2023-03-24T15:19:01.401Z,13.85
2023-03-24T15:21:28.738Z,13.84
2023-03-24T15:23:55.435Z,13.91
2023-03-24T15:26:21.853Z,13.83
2023-03-24T15:28:53.762Z,13.78
2023-03-24T15:31:20.042Z,13.90
2023-03-24T15:33:46.278Z,13.95
2023-03-24T15:36:16.207Z,13.72
2023-03-24T15:38:46.152Z,13.62
2023-03-24T15:41:12.709Z,13.70
2023-03-24T15:43:51.774Z,13.63
2023-03-24T15:46:27.901Z,13.66
2023-03-24T15:48:54.504Z,13.63
2023-03-24T15:51:21.333Z,13.66
2023-03-24T15:53:48.585Z,13.61
2023-03-24T15:56:19.075Z,13.54
2023-03-24T15:58:55.160Z,13.43
2023-03-24T16:01:25.275Z,13.49
2023-03-24T16:03:51.529Z,13.36
2023-03-24T16:06:23.847Z,13.38
2023-03-24T16:08:50.073Z,13.36
2023-03-24T16:11:16.279Z,13.20
2023-03-24T16:13:43.444Z,13.19
2023-03-24T16:16:22.523Z,13.06
2023-03-24T16:18:48.850Z,12.91
2023-03-24T16:21:19.107Z,12.83
2023-03-24T16:23:45.465Z,12.69
2023-03-24T16:26:15.296Z,12.64
2023-03-24T16:28:41.514Z,12.79
2023-03-24T16:31:07.806Z,12.95
2023-03-24T16:33:34.088Z,12.94
2023-03-24T16:36:00.351Z,13.00
2023-03-24T16:38:26.682Z,13.02
2023-03-24T16:40:53.443Z,12.87
2023-03-24T16:43:19.743Z,12.76
2023-03-24T16:45:46.461Z,12.74
2023-03-24T16:48:12.717Z,12.59
2023-03-24T16:50:39.602Z,12.51
2023-03-24T16:53:05.817Z,12.51
2023-03-24T16:55:32.233Z,12.45
2023-03-24T16:57:58.448Z,12.39
2023-03-24T17:00:24.722Z,12.25
2023-03-24T17:02:54.762Z,12.17
2023-03-24T17:05:22.490Z,12.03
2023-03-24T17:07:48.704Z,11.92
2023-03-24T17:10:14.933Z,11.76
2023-03-24T17:12:41.137Z,11.59
2023-03-24T17:15:07.545Z,11.48
2023-03-24T17:17:33.746Z,11.37
2023-03-24T17:20:00.041Z,11.23
2023-03-24T17:22:26.245Z,11.16
2023-03-24T17:24:52.460Z,11.10
2023-03-24T17:27:18.726Z,11.02
2023-03-24T17:29:45.045Z,10.95
2023-03-24T17:32:11.422Z,10.91
2023-03-24T17:34:37.684Z,10.85
2023-03-24T17:37:04.261Z,10.86
2023-03-24T17:39:30.498Z,10.80
2023-03-24T17:41:56.704Z,10.75
2023-03-24T17:44:22.919Z,10.71
2023-03-24T17:46:49.169Z,10.63
2023-03-24T17:49:15.418Z,10.57
2023-03-24T17:51:41.627Z,10.53
2023-03-24T17:54:07.869Z,10.45
2023-03-24T17:56:34.109Z,10.41
2023-03-24T17:59:00.397Z,10.38
2023-03-24T18:01:26.654Z,10.25
2023-03-24T18:03:52.991Z,10.24
2023-03-24T18:06:19.243Z,10.23
2023-03-24T18:08:45.449Z,10.22
2023-03-24T18:11:12.797Z,10.22
2023-03-24T18:13:39.067Z,9.92
2023-03-24T18:16:17.799Z,9.79
2023-03-24T18:18:46.589Z,9.86
2023-03-24T18:21:12.817Z,9.94
2023-03-24T18:23:39.028Z,9.82
2023-03-24T18:26:05.894Z,9.82
2023-03-24T18:28:32.150Z,9.60
2023-03-24T18:30:58.361Z,9.61
2023-03-24T18:33:24.583Z,9.61
2023-03-24T18:35:51.565Z,9.61
2023-03-24T18:38:17.854Z,9.68
2023-03-24T18:40:44.061Z,9.60
2023-03-24T18:43:10.255Z,9.61
2023-03-24T18:45:36.583Z,9.58
2023-03-24T18:48:02.939Z,9.64
2023-03-24T18:50:29.178Z,9.58
2023-03-24T18:52:55.386Z,9.65
2023-03-24T18:55:21.624Z,9.65
2023-03-24T18:57:47.841Z,9.65
2023-03-24T19:00:14.132Z,9.67
2023-03-24T19:02:40.484Z,9.80
2023-03-24T19:05:06.936Z,9.88
2023-03-24T19:07:33.150Z,9.91
2023-03-24T19:09:59.393Z,9.84
2023-03-24T19:12:25.628Z,9.77
2023-03-24T19:14:51.841Z,9.78
2023-03-24T19:17:18.038Z,9.77
2023-03-24T19:19:44.251Z,9.74
2023-03-24T19:22:10.443Z,9.71
2023-03-24T19:24:36.671Z,9.68
2023-03-24T19:27:02.895Z,9.65
2023-03-24T19:29:29.111Z,9.67
2023-03-24T19:31:55.331Z,9.66
2023-03-24T19:34:21.541Z,9.75
2023-03-24T19:36:49.613Z,9.81
2023-03-24T19:39:15.894Z,9.89
2023-03-24T19:41:42.100Z,9.90
2023-03-24T19:44:08.314Z,9.76
2023-03-24T19:46:34.560Z,9.83
2023-03-24T19:49:00.796Z,9.83
2023-03-24T19:51:27.017Z,9.73
2023-03-24T19:53:53.244Z,9.73
2023-03-24T19:56:19.460Z,9.71
2023-03-24T19:58:45.692Z,9.66
2023-03-24T20:01:11.932Z,9.66
2023-03-24T20:03:38.214Z,9.70
2023-03-24T20:06:05.630Z,9.64
2023-03-24T20:08:31.850Z,9.50
2023-03-24T20:10:58.066Z,9.57
2023-03-24T20:13:24.274Z,9.55
2023-03-24T20:15:50.668Z,9.47
2023-03-24T20:18:16.998Z,9.45
2023-03-24T20:20:43.201Z,9.57
2023-03-24T20:23:09.394Z,9.54
2023-03-24T20:25:35.646Z,9.43
2023-03-24T20:28:01.844Z,9.31
2023-03-24T20:30:28.074Z,9.34
2023-03-24T20:32:57.387Z,9.34
2023-03-24T20:35:23.889Z,9.28
2023-03-24T20:37:50.114Z,9.30
2023-03-24T20:40:16.493Z,9.23
2023-03-24T20:42:42.693Z,9.16
2023-03-24T20:45:10.151Z,9.16
2023-03-24T20:47:36.543Z,9.15
2023-03-24T20:50:03.158Z,9.03
2023-03-24T20:52:29.368Z,9.03
2023-03-24T20:54:55.572Z,8.99
2023-03-24T20:57:21.782Z,9.00
2023-03-24T20:59:47.982Z,8.92
2023-03-24T21:02:14.256Z,8.92
2023-03-24T21:04:40.476Z,8.92
2023-03-24T21:07:06.695Z,8.94
2023-03-24T21:09:32.895Z,8.93
2023-03-24T21:11:59.112Z,8.92
2023-03-24T21:14:25.318Z,8.92
2023-03-24T21:16:51.625Z,8.90
2023-03-24T21:19:17.891Z,8.81
2023-03-24T21:21:44.107Z,8.74
2023-03-24T21:24:10.328Z,8.63
2023-03-24T21:26:36.540Z,8.58
2023-03-24T21:29:02.753Z,8.56
2023-03-24T21:31:29.101Z,8.50
2023-03-24T21:33:55.453Z,8.50
2023-03-24T21:36:21.852Z,8.51
2023-03-24T21:38:48.220Z,8.47
2023-03-24T21:41:14.431Z,8.49
2023-03-24T21:43:40.633Z,8.45
2023-03-24T21:46:07.019Z,8.42
2023-03-24T21:48:33.290Z,8.48
2023-03-24T21:50:59.499Z,8.55
2023-03-24T21:53:25.702Z,8.48
2023-03-24T21:55:55.963Z,8.45
2023-03-24T21:58:22.495Z,8.37
2023-03-24T22:00:49.032Z,8.36
2023-03-24T22:03:15.531Z,8.33
2023-03-24T22:05:41.975Z,8.28
2023-03-24T22:08:08.543Z,8.28
2023-03-24T22:10:34.977Z,8.31
2023-03-24T22:13:01.555Z,8.31
2023-03-24T22:15:28.194Z,8.19
2023-03-24T22:17:55.203Z,8.17
2023-03-24T22:20:21.453Z,8.18
2023-03-24T22:22:48.081Z,8.33
2023-03-24T22:25:14.921Z,8.24
2023-03-24T22:27:41.315Z,8.23
2023-03-24T22:30:08.191Z,8.27
2023-03-24T22:32:35.464Z,8.25
2023-03-24T22:35:01.739Z,8.21
2023-03-24T22:37:28.407Z,8.26
2023-03-24T22:39:54.603Z,8.18
2023-03-24T22:42:20.828Z,8.14
2023-03-24T22:44:47.037Z,8.18
2023-03-24T22:47:13.245Z,8.17
2023-03-24T22:49:39.444Z,8.18
2023-03-24T22:52:05.835Z,8.10
2023-03-24T22:54:32.049Z,8.06
2023-03-24T22:56:58.446Z,7.96
2023-03-24T22:59:24.664Z,7.93
2023-03-24T23:02:02.255Z,7.95
2023-03-24T23:04:34.775Z,8.01
2023-03-24T23:07:00.980Z,8.03
2023-03-24T23:09:27.189Z,8.02
2023-03-24T23:11:53.399Z,8.13
2023-03-24T23:14:19.594Z,8.03
2023-03-24T23:16:45.852Z,7.97
2023-03-24T23:19:12.071Z,7.86
2023-03-24T23:21:38.294Z,7.88
2023-03-24T23:24:04.580Z,7.91
2023-03-24T23:26:30.806Z,7.90
2023-03-24T23:28:57.069Z,7.83
2023-03-24T23:31:24.199Z,7.85
2023-03-24T23:33:50.724Z,7.80
2023-03-24T23:36:18.917Z,7.78
2023-03-24T23:38:45.530Z,7.83
2023-03-24T23:41:11.735Z,7.79
2023-03-24T23:43:37.952Z,7.77
2023-03-24T23:46:04.229Z,7.66
2023-03-24T23:48:30.638Z,7.69
2023-03-24T23:50:56.846Z,7.70
2023-03-24T23:53:23.092Z,7.61
2023-03-24T23:55:52.733Z,7.58
2023-03-24T23:58:18.942Z,7.55
